RYR4178 LCPH-EPMO
Flight info
| Callsign | RYR4178 |
|---|---|
| Flight time | 3h 18m |
| Altitude | 36000 |
| Route | GENOS DCT PEDER DCT LUTIG DCT RDS UL609 MES DCT ATFIR DCT LOMOS DCT BADOR DCT KENIN DCT OGVET L621 LIMVI |
| Aircraft | B738/M-SDE2E3FGHIRWXY/LB1 |
Departure
| Time | 2026-04-22 15:56 |
|---|---|
| Airport | Paphos International Airport (LCPH) |
Arrival
| Time | 2026-04-22 19:14 |
|---|---|
| Airport | Warsaw Modlin Airport (EPMO) |
| Time | Latitude | Longitude | Altitude | Speed | Heading |
|---|---|---|---|---|---|
| 2026-04-22 15:09 | 34.71264 | 32.48418 | 35 ft | 0 kts | 164° |
| 2026-04-22 15:46 | 34.71277 | 32.48414 | 41 ft | 4 kts | 161° |
| 2026-04-22 15:47 | 34.71301 | 32.48400 | 42 ft | 4 kts | 144° |
| 2026-04-22 15:47 | 34.71320 | 32.48378 | 41 ft | 4 kts | 123° |
| 2026-04-22 15:47 | 34.71324 | 32.48371 | 39 ft | 1 kts | 119° |
| 2026-04-22 15:51 | 34.71324 | 32.48381 | 40 ft | 4 kts | 86° |
| 2026-04-22 15:51 | 34.71335 | 32.48453 | 43 ft | 12 kts | 78° |
| 2026-04-22 15:51 | 34.71368 | 32.48570 | 43 ft | 17 kts | 66° |
| 2026-04-22 15:51 | 34.71417 | 32.48697 | 43 ft | 16 kts | 65° |
| 2026-04-22 15:52 | 34.71465 | 32.48825 | 42 ft | 17 kts | 65° |
| 2026-04-22 15:52 | 34.71516 | 32.48950 | 43 ft | 16 kts | 51° |
| 2026-04-22 15:52 | 34.71535 | 32.48968 | 43 ft | 0 kts | 28° |
| 2026-04-22 15:52 | 34.71539 | 32.48970 | 43 ft | 3 kts | 26° |
| 2026-04-22 15:53 | 34.71591 | 32.48997 | 43 ft | 12 kts | 22° |
| 2026-04-22 15:53 | 34.71628 | 32.49099 | 42 ft | 19 kts | 109° |
| 2026-04-22 15:53 | 34.71572 | 32.49280 | 41 ft | 24 kts | 110° |
| 2026-04-22 15:53 | 34.71513 | 32.49474 | 38 ft | 26 kts | 110° |
| 2026-04-22 15:54 | 34.71449 | 32.49682 | 38 ft | 27 kts | 110° |
| 2026-04-22 15:54 | 34.71373 | 32.49789 | 39 ft | 14 kts | 127° |
| 2026-04-22 15:54 | 34.71401 | 32.49844 | 39 ft | 8 kts | 322° |
| 2026-04-22 15:54 | 34.71419 | 32.49783 | 38 ft | 6 kts | 290° |
| 2026-04-22 15:55 | 34.71421 | 32.49778 | 38 ft | 0 kts | 290° |
| 2026-04-22 15:55 | 34.71426 | 32.49760 | 38 ft | 9 kts | 290° |
| 2026-04-22 15:55 | 34.71530 | 32.49424 | 39 ft | 79 kts | 290° |
| 2026-04-22 15:55 | 34.71798 | 32.48546 | 43 ft | 141 kts | 290° |
| 2026-04-22 15:56 | 34.72183 | 32.47276 | 404 ft | 164 kts | 291° |
| 2026-04-22 15:56 | 34.72471 | 32.45901 | 1054 ft | 182 kts | 268° |
| 2026-04-22 15:56 | 34.72131 | 32.44396 | 1822 ft | 189 kts | 253° |
| 2026-04-22 15:56 | 34.71754 | 32.42838 | 2555 ft | 192 kts | 255° |
| 2026-04-22 15:57 | 34.71387 | 32.41281 | 3284 ft | 195 kts | 254° |
| 2026-04-22 15:57 | 34.70995 | 32.39594 | 3558 ft | 218 kts | 255° |
| 2026-04-22 15:57 | 34.70589 | 32.37815 | 4084 ft | 224 kts | 255° |
| 2026-04-22 15:57 | 34.70175 | 32.35970 | 4562 ft | 235 kts | 255° |
| 2026-04-22 15:58 | 34.69726 | 32.33943 | 4778 ft | 257 kts | 255° |
| 2026-04-22 15:58 | 34.69263 | 32.31822 | 5362 ft | 265 kts | 255° |
| 2026-04-22 15:58 | 34.68792 | 32.29649 | 6253 ft | 266 kts | 255° |
| 2026-04-22 15:58 | 34.68316 | 32.27445 | 7006 ft | 269 kts | 256° |
| 2026-04-22 15:59 | 34.67846 | 32.25258 | 7803 ft | 271 kts | 256° |
| 2026-04-22 15:59 | 34.67368 | 32.23035 | 8616 ft | 272 kts | 256° |
| 2026-04-22 15:59 | 34.66886 | 32.20794 | 9424 ft | 274 kts | 256° |
| 2026-04-22 15:59 | 34.66405 | 32.18564 | 10176 ft | 277 kts | 256° |
| 2026-04-22 16:00 | 34.66027 | 32.16199 | 10476 ft | 296 kts | 270° |
| 2026-04-22 16:00 | 34.66163 | 32.13648 | 10670 ft | 317 kts | 275° |
| 2026-04-22 16:00 | 34.66388 | 32.10878 | 10902 ft | 336 kts | 276° |
| 2026-04-22 16:00 | 34.66616 | 32.08051 | 11491 ft | 341 kts | 275° |
| 2026-04-22 16:01 | 34.66839 | 32.05161 | 12233 ft | 343 kts | 275° |
| 2026-04-22 16:01 | 34.67049 | 32.02294 | 12968 ft | 345 kts | 275° |
| 2026-04-22 16:01 | 34.67255 | 31.99405 | 13664 ft | 348 kts | 275° |
| 2026-04-22 16:01 | 34.67462 | 31.96442 | 14296 ft | 351 kts | 275° |
| 2026-04-22 16:02 | 34.67667 | 31.93489 | 14902 ft | 354 kts | 275° |
| 2026-04-22 16:02 | 34.67977 | 31.90535 | 15492 ft | 357 kts | 284° |
| 2026-04-22 16:02 | 34.68950 | 31.87734 | 16107 ft | 361 kts | 298° |
| 2026-04-22 16:02 | 34.70214 | 31.85098 | 16709 ft | 364 kts | 300° |
| 2026-04-22 16:03 | 34.71534 | 31.82444 | 17285 ft | 368 kts | 300° |
| 2026-04-22 16:03 | 34.72865 | 31.79784 | 17861 ft | 372 kts | 300° |
| 2026-04-22 16:03 | 34.74223 | 31.77057 | 18422 ft | 375 kts | 300° |
| 2026-04-22 16:03 | 34.75563 | 31.74345 | 18939 ft | 377 kts | 300° |
| 2026-04-22 16:04 | 34.76921 | 31.71580 | 19488 ft | 379 kts | 300° |
| 2026-04-22 16:04 | 34.78267 | 31.68825 | 20008 ft | 381 kts | 300° |
| 2026-04-22 16:04 | 34.79615 | 31.66055 | 20523 ft | 383 kts | 300° |
| 2026-04-22 16:04 | 34.80983 | 31.63240 | 21025 ft | 386 kts | 300° |
| 2026-04-22 16:05 | 34.81893 | 31.61364 | 21353 ft | 388 kts | 300° |
| 2026-04-22 16:05 | 34.83724 | 31.57587 | 21993 ft | 391 kts | 300° |
| 2026-04-22 16:05 | 34.85097 | 31.54749 | 22470 ft | 393 kts | 300° |
| 2026-04-22 16:05 | 34.86495 | 31.51861 | 22950 ft | 395 kts | 300° |
| 2026-04-22 16:06 | 34.87889 | 31.48976 | 23413 ft | 398 kts | 300° |
| 2026-04-22 16:06 | 34.89306 | 31.46040 | 23809 ft | 400 kts | 300° |
| 2026-04-22 16:06 | 34.90711 | 31.43129 | 24214 ft | 401 kts | 300° |
| 2026-04-22 16:06 | 34.92140 | 31.40165 | 24642 ft | 402 kts | 299° |
| 2026-04-22 16:07 | 34.93548 | 31.37242 | 25032 ft | 404 kts | 299° |
| 2026-04-22 16:07 | 34.94965 | 31.34299 | 25411 ft | 405 kts | 299° |
| 2026-04-22 16:07 | 34.96399 | 31.31315 | 25785 ft | 407 kts | 299° |
| 2026-04-22 16:07 | 34.97827 | 31.28344 | 26151 ft | 408 kts | 299° |
| 2026-04-22 16:08 | 34.99267 | 31.25345 | 26533 ft | 409 kts | 299° |
| 2026-04-22 16:08 | 35.00698 | 31.22360 | 26853 ft | 411 kts | 299° |
| 2026-04-22 16:08 | 35.02150 | 31.19331 | 27180 ft | 413 kts | 299° |
| 2026-04-22 16:08 | 35.03595 | 31.16312 | 27504 ft | 415 kts | 299° |
| 2026-04-22 16:09 | 35.05058 | 31.13255 | 27848 ft | 416 kts | 299° |
| 2026-04-22 16:09 | 35.06523 | 31.10189 | 28174 ft | 417 kts | 299° |
| 2026-04-22 16:09 | 35.07978 | 31.07142 | 28469 ft | 419 kts | 299° |
| 2026-04-22 16:09 | 35.09457 | 31.04042 | 28797 ft | 420 kts | 299° |
| 2026-04-22 16:10 | 35.10921 | 31.00970 | 29097 ft | 422 kts | 299° |
| 2026-04-22 16:10 | 35.12392 | 30.97881 | 29392 ft | 423 kts | 299° |
| 2026-04-22 16:10 | 35.13375 | 30.95816 | 29643 ft | 422 kts | 299° |
| 2026-04-22 16:10 | 35.15340 | 30.91684 | 30244 ft | 418 kts | 298° |
| 2026-04-22 16:11 | 35.16789 | 30.88636 | 30616 ft | 416 kts | 298° |
| 2026-04-22 16:11 | 35.18230 | 30.85536 | 30916 ft | 416 kts | 297° |
| 2026-04-22 16:11 | 35.19557 | 30.82417 | 31190 ft | 415 kts | 295° |
| 2026-04-22 16:11 | 35.20841 | 30.79276 | 31528 ft | 414 kts | 295° |
| 2026-04-22 16:12 | 35.22121 | 30.76103 | 31875 ft | 412 kts | 295° |
| 2026-04-22 16:12 | 35.23381 | 30.72976 | 32175 ft | 411 kts | 295° |
| 2026-04-22 16:12 | 35.24641 | 30.69863 | 32467 ft | 411 kts | 295° |
| 2026-04-22 16:12 | 35.25913 | 30.66729 | 32798 ft | 409 kts | 295° |
| 2026-04-22 16:13 | 35.27173 | 30.63633 | 33117 ft | 408 kts | 295° |
| 2026-04-22 16:13 | 35.28445 | 30.60513 | 33417 ft | 407 kts | 295° |
| 2026-04-22 16:13 | 35.29702 | 30.57427 | 33697 ft | 406 kts | 295° |
| 2026-04-22 16:13 | 35.30961 | 30.54338 | 33995 ft | 405 kts | 295° |
| 2026-04-22 16:14 | 35.32223 | 30.51237 | 34209 ft | 405 kts | 295° |
| 2026-04-22 16:14 | 35.33474 | 30.48161 | 34393 ft | 405 kts | 295° |
| 2026-04-22 16:14 | 35.34717 | 30.45099 | 34597 ft | 405 kts | 295° |
| 2026-04-22 16:14 | 35.35967 | 30.42021 | 34815 ft | 404 kts | 295° |
| 2026-04-22 16:15 | 35.37215 | 30.38942 | 35014 ft | 404 kts | 294° |
| 2026-04-22 16:15 | 35.38477 | 30.35826 | 35161 ft | 406 kts | 294° |
| 2026-04-22 16:15 | 35.39718 | 30.32757 | 35301 ft | 407 kts | 294° |
| 2026-04-22 16:15 | 35.40983 | 30.29628 | 35485 ft | 407 kts | 294° |
| 2026-04-22 16:16 | 35.42232 | 30.26537 | 35689 ft | 406 kts | 294° |
| 2026-04-22 16:16 | 35.43494 | 30.23410 | 35874 ft | 406 kts | 294° |
| 2026-04-22 16:16 | 35.45983 | 30.17231 | 35958 ft | 408 kts | 294° |
| 2026-04-22 16:17 | 35.48492 | 30.10992 | 35965 ft | 406 kts | 294° |
| 2026-04-22 16:17 | 35.50982 | 30.04792 | 35966 ft | 404 kts | 294° |
| 2026-04-22 16:18 | 35.53467 | 29.98614 | 35966 ft | 402 kts | 295° |
| 2026-04-22 16:18 | 35.56070 | 29.92573 | 35965 ft | 402 kts | 296° |
| 2026-04-22 16:19 | 35.58727 | 29.86529 | 35969 ft | 401 kts | 296° |
| 2026-04-22 16:19 | 35.61367 | 29.80479 | 35970 ft | 402 kts | 296° |
| 2026-04-22 16:20 | 35.63997 | 29.74410 | 35964 ft | 403 kts | 296° |
| 2026-04-22 16:20 | 35.66182 | 29.69346 | 35967 ft | 404 kts | 296° |
| 2026-04-22 16:21 | 35.69250 | 29.62224 | 35966 ft | 405 kts | 296° |
| 2026-04-22 16:21 | 35.71446 | 29.57117 | 35965 ft | 406 kts | 296° |
| 2026-04-22 16:22 | 35.75424 | 29.47844 | 35969 ft | 408 kts | 296° |
| 2026-04-22 16:23 | 35.79386 | 29.38584 | 35964 ft | 408 kts | 296° |
| 2026-04-22 16:23 | 35.82026 | 29.32400 | 35965 ft | 408 kts | 296° |
| 2026-04-22 16:24 | 35.85980 | 29.23115 | 35967 ft | 408 kts | 296° |
| 2026-04-22 16:25 | 35.88596 | 29.16958 | 35966 ft | 407 kts | 296° |
| 2026-04-22 16:25 | 35.92537 | 29.07659 | 35968 ft | 406 kts | 295° |
| 2026-04-22 16:26 | 35.95136 | 29.01514 | 35966 ft | 405 kts | 295° |
| 2026-04-22 16:26 | 35.97742 | 28.95338 | 35966 ft | 405 kts | 295° |
| 2026-04-22 16:27 | 36.00331 | 28.89194 | 35964 ft | 404 kts | 295° |
| 2026-04-22 16:27 | 36.02933 | 28.83005 | 35968 ft | 404 kts | 295° |
| 2026-04-22 16:28 | 36.05499 | 28.76891 | 35965 ft | 404 kts | 295° |
| 2026-04-22 16:28 | 36.08076 | 28.70740 | 35963 ft | 404 kts | 295° |
| 2026-04-22 16:29 | 36.10657 | 28.64567 | 35961 ft | 404 kts | 295° |
| 2026-04-22 16:29 | 36.13237 | 28.58386 | 35962 ft | 404 kts | 295° |
| 2026-04-22 16:30 | 36.15814 | 28.52198 | 35957 ft | 404 kts | 295° |
| 2026-04-22 16:30 | 36.18395 | 28.45991 | 35958 ft | 405 kts | 295° |
| 2026-04-22 16:31 | 36.20812 | 28.40166 | 35954 ft | 405 kts | 295° |
| 2026-04-22 16:31 | 36.23282 | 28.34205 | 35952 ft | 405 kts | 295° |
| 2026-04-22 16:32 | 36.25852 | 28.27988 | 35947 ft | 406 kts | 295° |
| 2026-04-22 16:32 | 36.28426 | 28.21752 | 35944 ft | 406 kts | 295° |
| 2026-04-22 16:33 | 36.30985 | 28.15539 | 35940 ft | 405 kts | 295° |
| 2026-04-22 16:33 | 36.33674 | 28.09404 | 35934 ft | 407 kts | 302° |
| 2026-04-22 16:34 | 36.37430 | 28.04117 | 35949 ft | 411 kts | 313° |
| 2026-04-22 16:34 | 36.41632 | 27.99323 | 35946 ft | 411 kts | 314° |
| 2026-04-22 16:35 | 36.45835 | 27.94520 | 35941 ft | 411 kts | 313° |
| 2026-04-22 16:35 | 36.50022 | 27.89696 | 35945 ft | 410 kts | 313° |
| 2026-04-22 16:36 | 36.54197 | 27.84860 | 35945 ft | 410 kts | 313° |
| 2026-04-22 16:36 | 36.58363 | 27.80023 | 35947 ft | 409 kts | 313° |
| 2026-04-22 16:37 | 36.62521 | 27.75187 | 35955 ft | 409 kts | 313° |
| 2026-04-22 16:37 | 36.66682 | 27.70340 | 35950 ft | 409 kts | 313° |
| 2026-04-22 16:38 | 36.70823 | 27.65510 | 35938 ft | 408 kts | 313° |
| 2026-04-22 16:38 | 36.74954 | 27.60685 | 35922 ft | 407 kts | 313° |
| 2026-04-22 16:39 | 36.79057 | 27.55885 | 35944 ft | 406 kts | 313° |
| 2026-04-22 16:39 | 36.82507 | 27.51841 | 35961 ft | 407 kts | 313° |
| 2026-04-22 16:40 | 36.86721 | 27.46895 | 35952 ft | 408 kts | 313° |
| 2026-04-22 16:41 | 36.92923 | 27.39601 | 35950 ft | 409 kts | 313° |
| 2026-04-22 16:41 | 36.97047 | 27.34743 | 35965 ft | 410 kts | 313° |
| 2026-04-22 16:42 | 37.01203 | 27.29840 | 35957 ft | 410 kts | 313° |
| 2026-04-22 16:42 | 37.05332 | 27.24961 | 35966 ft | 411 kts | 313° |
| 2026-04-22 16:43 | 37.09485 | 27.20045 | 35949 ft | 411 kts | 313° |
| 2026-04-22 16:43 | 37.13622 | 27.15141 | 35950 ft | 411 kts | 313° |
| 2026-04-22 16:44 | 37.17766 | 27.10221 | 35951 ft | 410 kts | 313° |
| 2026-04-22 16:44 | 37.21902 | 27.05301 | 35947 ft | 410 kts | 313° |
| 2026-04-22 16:45 | 37.26037 | 27.00376 | 35944 ft | 409 kts | 313° |
| 2026-04-22 16:45 | 37.30164 | 26.95452 | 35945 ft | 408 kts | 313° |
| 2026-04-22 16:46 | 37.34252 | 26.90565 | 35947 ft | 408 kts | 313° |
| 2026-04-22 16:46 | 37.38363 | 26.85645 | 35949 ft | 407 kts | 313° |
| 2026-04-22 16:47 | 37.42542 | 26.80847 | 35952 ft | 408 kts | 315° |
| 2026-04-22 16:47 | 37.46903 | 26.76204 | 35957 ft | 409 kts | 316° |
| 2026-04-22 16:48 | 37.51213 | 26.71609 | 35957 ft | 408 kts | 315° |
| 2026-04-22 16:48 | 37.55543 | 26.66945 | 35954 ft | 408 kts | 315° |
| 2026-04-22 16:49 | 37.59847 | 26.62288 | 35952 ft | 408 kts | 315° |
| 2026-04-22 16:49 | 37.64142 | 26.57632 | 35953 ft | 408 kts | 315° |
| 2026-04-22 16:50 | 37.68457 | 26.52950 | 35949 ft | 409 kts | 315° |
| 2026-04-22 16:50 | 37.72730 | 26.48292 | 35945 ft | 409 kts | 315° |
| 2026-04-22 16:51 | 37.77020 | 26.43601 | 35944 ft | 409 kts | 315° |
| 2026-04-22 16:51 | 37.81330 | 26.38882 | 35946 ft | 409 kts | 315° |
| 2026-04-22 16:52 | 37.85632 | 26.34166 | 35942 ft | 410 kts | 315° |
| 2026-04-22 16:52 | 37.89941 | 26.29444 | 35944 ft | 410 kts | 315° |
| 2026-04-22 16:53 | 37.94251 | 26.24725 | 35941 ft | 410 kts | 315° |
| 2026-04-22 16:53 | 37.98566 | 26.19990 | 35944 ft | 410 kts | 315° |
| 2026-04-22 16:54 | 38.02881 | 26.15247 | 35942 ft | 410 kts | 315° |
| 2026-04-22 16:54 | 38.06989 | 26.10725 | 35944 ft | 410 kts | 315° |
| 2026-04-22 16:55 | 38.11329 | 26.05943 | 35939 ft | 410 kts | 315° |
| 2026-04-22 16:55 | 38.15628 | 26.01197 | 35945 ft | 410 kts | 315° |
| 2026-04-22 16:56 | 38.19829 | 25.96552 | 35939 ft | 410 kts | 315° |
| 2026-04-22 16:56 | 38.24147 | 25.91800 | 35941 ft | 411 kts | 317° |
| 2026-04-22 16:57 | 38.29031 | 25.88016 | 35951 ft | 417 kts | 328° |
| 2026-04-22 16:57 | 38.34248 | 25.84710 | 35947 ft | 417 kts | 328° |
| 2026-04-22 16:58 | 38.38548 | 25.81981 | 35945 ft | 416 kts | 328° |
| 2026-04-22 16:58 | 38.44583 | 25.78109 | 35951 ft | 415 kts | 328° |
| 2026-04-22 16:59 | 38.49749 | 25.74771 | 35949 ft | 415 kts | 328° |
| 2026-04-22 16:59 | 38.54900 | 25.71432 | 35953 ft | 414 kts | 328° |
| 2026-04-22 17:00 | 38.60033 | 25.68099 | 35957 ft | 414 kts | 328° |
| 2026-04-22 17:00 | 38.67698 | 25.63113 | 35960 ft | 414 kts | 328° |
| 2026-04-22 17:01 | 38.72832 | 25.59767 | 35962 ft | 414 kts | 328° |
| 2026-04-22 17:01 | 38.77985 | 25.56403 | 35963 ft | 415 kts | 328° |
| 2026-04-22 17:02 | 38.83140 | 25.53032 | 35968 ft | 415 kts | 328° |
| 2026-04-22 17:02 | 38.88286 | 25.49662 | 35968 ft | 416 kts | 328° |
| 2026-04-22 17:03 | 38.93430 | 25.46288 | 35973 ft | 417 kts | 328° |
| 2026-04-22 17:03 | 38.98615 | 25.42880 | 35975 ft | 418 kts | 328° |
| 2026-04-22 17:04 | 39.03809 | 25.39464 | 35974 ft | 418 kts | 328° |
| 2026-04-22 17:04 | 39.08963 | 25.36065 | 35985 ft | 418 kts | 328° |
| 2026-04-22 17:05 | 39.14136 | 25.32649 | 35974 ft | 419 kts | 328° |
| 2026-04-22 17:05 | 39.19350 | 25.29200 | 35983 ft | 419 kts | 328° |
| 2026-04-22 17:06 | 39.24510 | 25.25781 | 35988 ft | 420 kts | 327° |
| 2026-04-22 17:06 | 39.29691 | 25.22343 | 35992 ft | 420 kts | 327° |
| 2026-04-22 17:07 | 39.34887 | 25.18889 | 35996 ft | 420 kts | 327° |
| 2026-04-22 17:07 | 39.40104 | 25.15414 | 35997 ft | 420 kts | 327° |
| 2026-04-22 17:08 | 39.45295 | 25.11952 | 36001 ft | 420 kts | 327° |
| 2026-04-22 17:08 | 39.50485 | 25.08484 | 36001 ft | 420 kts | 327° |
| 2026-04-22 17:09 | 39.55666 | 25.05018 | 36005 ft | 419 kts | 327° |
| 2026-04-22 17:09 | 39.60862 | 25.01535 | 36009 ft | 419 kts | 327° |
| 2026-04-22 17:10 | 39.65154 | 24.98652 | 36009 ft | 418 kts | 327° |
| 2026-04-22 17:10 | 39.71194 | 24.94590 | 36008 ft | 417 kts | 327° |
| 2026-04-22 17:11 | 39.76307 | 24.91145 | 36008 ft | 416 kts | 327° |
| 2026-04-22 17:11 | 39.81451 | 24.87673 | 36009 ft | 415 kts | 327° |
| 2026-04-22 17:12 | 39.86551 | 24.84224 | 36014 ft | 414 kts | 327° |
| 2026-04-22 17:12 | 39.90827 | 24.81329 | 36018 ft | 414 kts | 327° |
| 2026-04-22 17:13 | 39.95913 | 24.77879 | 36024 ft | 413 kts | 327° |
| 2026-04-22 17:13 | 40.01858 | 24.73840 | 36024 ft | 413 kts | 327° |
| 2026-04-22 17:14 | 40.06117 | 24.70941 | 36030 ft | 412 kts | 327° |
| 2026-04-22 17:14 | 40.11195 | 24.67479 | 36023 ft | 412 kts | 326° |
| 2026-04-22 17:15 | 40.16247 | 24.64030 | 36027 ft | 412 kts | 326° |
| 2026-04-22 17:15 | 40.21341 | 24.60545 | 36026 ft | 412 kts | 326° |
| 2026-04-22 17:16 | 40.26409 | 24.57072 | 36026 ft | 412 kts | 326° |
| 2026-04-22 17:16 | 40.31472 | 24.53597 | 36022 ft | 412 kts | 326° |
| 2026-04-22 17:17 | 40.36567 | 24.50094 | 36023 ft | 412 kts | 326° |
| 2026-04-22 17:17 | 40.41640 | 24.46600 | 36030 ft | 412 kts | 326° |
| 2026-04-22 17:18 | 40.46689 | 24.43117 | 36033 ft | 412 kts | 326° |
| 2026-04-22 17:18 | 40.51777 | 24.39601 | 36034 ft | 413 kts | 326° |
| 2026-04-22 17:19 | 40.61957 | 24.32548 | 36033 ft | 413 kts | 326° |
| 2026-04-22 17:20 | 40.71578 | 24.25860 | 36028 ft | 412 kts | 326° |
| 2026-04-22 17:21 | 40.79178 | 24.20561 | 36026 ft | 412 kts | 326° |
| 2026-04-22 17:22 | 40.86776 | 24.15249 | 36040 ft | 413 kts | 326° |
| 2026-04-22 17:23 | 40.94382 | 24.09917 | 36036 ft | 414 kts | 326° |
| 2026-04-22 17:23 | 41.01993 | 24.04570 | 36024 ft | 413 kts | 326° |
| 2026-04-22 17:24 | 41.07075 | 24.00991 | 36029 ft | 411 kts | 326° |
| 2026-04-22 17:24 | 41.12109 | 23.97439 | 36029 ft | 410 kts | 326° |
| 2026-04-22 17:25 | 41.17116 | 23.93900 | 36029 ft | 409 kts | 326° |
| 2026-04-22 17:25 | 41.22154 | 23.90332 | 36030 ft | 409 kts | 326° |
| 2026-04-22 17:26 | 41.27175 | 23.86771 | 36036 ft | 410 kts | 326° |
| 2026-04-22 17:26 | 41.32190 | 23.83206 | 36028 ft | 411 kts | 326° |
| 2026-04-22 17:27 | 41.37238 | 23.79614 | 36033 ft | 411 kts | 326° |
| 2026-04-22 17:27 | 41.42637 | 23.76909 | 36040 ft | 424 kts | 342° |
| 2026-04-22 17:28 | 41.48520 | 23.75643 | 36034 ft | 429 kts | 344° |
| 2026-04-22 17:28 | 41.54450 | 23.74481 | 36038 ft | 429 kts | 345° |
| 2026-04-22 17:29 | 41.60341 | 23.73294 | 36040 ft | 429 kts | 344° |
| 2026-04-22 17:29 | 41.66251 | 23.72070 | 36031 ft | 430 kts | 344° |
| 2026-04-22 17:30 | 41.72165 | 23.70833 | 36035 ft | 430 kts | 344° |
| 2026-04-22 17:30 | 41.78076 | 23.69588 | 36043 ft | 431 kts | 344° |
| 2026-04-22 17:31 | 41.84014 | 23.68338 | 36053 ft | 432 kts | 344° |
| 2026-04-22 17:31 | 41.89940 | 23.67090 | 36057 ft | 433 kts | 344° |
| 2026-04-22 17:32 | 41.95879 | 23.65837 | 36071 ft | 432 kts | 344° |
| 2026-04-22 17:32 | 42.01844 | 23.64576 | 36065 ft | 433 kts | 344° |
| 2026-04-22 17:33 | 42.07766 | 23.63320 | 36056 ft | 432 kts | 344° |
| 2026-04-22 17:33 | 42.13669 | 23.62068 | 36055 ft | 430 kts | 345° |
| 2026-04-22 17:34 | 42.19610 | 23.60806 | 36063 ft | 429 kts | 344° |
| 2026-04-22 17:34 | 42.25471 | 23.59557 | 36079 ft | 428 kts | 344° |
| 2026-04-22 17:35 | 42.31364 | 23.58298 | 36080 ft | 429 kts | 344° |
| 2026-04-22 17:35 | 42.37294 | 23.57027 | 36071 ft | 431 kts | 344° |
| 2026-04-22 17:36 | 42.43201 | 23.55760 | 36058 ft | 432 kts | 344° |
| 2026-04-22 17:36 | 42.49132 | 23.54486 | 36040 ft | 433 kts | 344° |
| 2026-04-22 17:37 | 42.52130 | 23.53842 | 36178 ft | 433 kts | 345° |
| 2026-04-22 17:37 | 42.55099 | 23.53202 | 36109 ft | 435 kts | 345° |
| 2026-04-22 17:37 | 42.61096 | 23.51908 | 36038 ft | 438 kts | 345° |
| 2026-04-22 17:38 | 42.67133 | 23.50606 | 36026 ft | 438 kts | 345° |
| 2026-04-22 17:38 | 42.73120 | 23.49311 | 36026 ft | 438 kts | 345° |
| 2026-04-22 17:39 | 42.79145 | 23.48005 | 36025 ft | 439 kts | 345° |
| 2026-04-22 17:40 | 42.88208 | 23.46034 | 36040 ft | 439 kts | 345° |
| 2026-04-22 17:40 | 42.94234 | 23.44721 | 36047 ft | 439 kts | 345° |
| 2026-04-22 17:41 | 43.00266 | 23.43404 | 36052 ft | 439 kts | 345° |
| 2026-04-22 17:41 | 43.06289 | 23.42086 | 36060 ft | 439 kts | 345° |
| 2026-04-22 17:42 | 43.12333 | 23.40761 | 36056 ft | 439 kts | 346° |
| 2026-04-22 17:42 | 43.18315 | 23.39447 | 36043 ft | 438 kts | 346° |
| 2026-04-22 17:43 | 43.24355 | 23.38118 | 36060 ft | 437 kts | 346° |
| 2026-04-22 17:43 | 43.30337 | 23.36799 | 36042 ft | 438 kts | 346° |
| 2026-04-22 17:44 | 43.36355 | 23.35468 | 36060 ft | 438 kts | 346° |
| 2026-04-22 17:44 | 43.42420 | 23.34125 | 36048 ft | 439 kts | 346° |
| 2026-04-22 17:45 | 43.48416 | 23.32795 | 36038 ft | 440 kts | 346° |
| 2026-04-22 17:45 | 43.54483 | 23.31445 | 36047 ft | 441 kts | 346° |
| 2026-04-22 17:46 | 43.60525 | 23.30099 | 36043 ft | 442 kts | 347° |
| 2026-04-22 17:46 | 43.66599 | 23.28743 | 36048 ft | 443 kts | 347° |
| 2026-04-22 17:47 | 43.72675 | 23.27384 | 36046 ft | 443 kts | 347° |
| 2026-04-22 17:47 | 43.78801 | 23.26011 | 36043 ft | 444 kts | 347° |
| 2026-04-22 17:48 | 43.83862 | 23.24872 | 36046 ft | 445 kts | 346° |
| 2026-04-22 17:48 | 43.90930 | 23.22938 | 36042 ft | 444 kts | 344° |
| 2026-04-22 17:49 | 43.96981 | 23.21141 | 36043 ft | 444 kts | 345° |
| 2026-04-22 17:49 | 44.03023 | 23.19367 | 36046 ft | 444 kts | 345° |
| 2026-04-22 17:50 | 44.09044 | 23.17624 | 36050 ft | 444 kts | 345° |
| 2026-04-22 17:50 | 44.15110 | 23.15876 | 36048 ft | 443 kts | 345° |
| 2026-04-22 17:51 | 44.21140 | 23.14136 | 36052 ft | 443 kts | 345° |
| 2026-04-22 17:51 | 44.27157 | 23.12396 | 36055 ft | 443 kts | 346° |
| 2026-04-22 17:52 | 44.33200 | 23.10645 | 36057 ft | 443 kts | 346° |
| 2026-04-22 17:52 | 44.39229 | 23.08893 | 36057 ft | 443 kts | 346° |
| 2026-04-22 17:53 | 44.45265 | 23.07135 | 36060 ft | 443 kts | 346° |
| 2026-04-22 17:53 | 44.51314 | 23.05370 | 36064 ft | 443 kts | 346° |
| 2026-04-22 17:54 | 44.57344 | 23.03607 | 36067 ft | 444 kts | 346° |
| 2026-04-22 17:54 | 44.63363 | 23.01844 | 36069 ft | 444 kts | 346° |
| 2026-04-22 17:55 | 44.68439 | 23.00353 | 36072 ft | 444 kts | 346° |
| 2026-04-22 17:55 | 44.75455 | 22.98289 | 36070 ft | 444 kts | 346° |
| 2026-04-22 17:56 | 44.81536 | 22.96496 | 36074 ft | 444 kts | 346° |
| 2026-04-22 17:56 | 44.87565 | 22.94714 | 36078 ft | 445 kts | 346° |
| 2026-04-22 17:57 | 44.93616 | 22.92922 | 36082 ft | 445 kts | 347° |
| 2026-04-22 17:57 | 44.99649 | 22.91132 | 36087 ft | 445 kts | 347° |
| 2026-04-22 17:58 | 45.05703 | 22.89331 | 36094 ft | 445 kts | 347° |
| 2026-04-22 17:58 | 45.11750 | 22.87529 | 36100 ft | 444 kts | 347° |
| 2026-04-22 17:59 | 45.17811 | 22.85718 | 36100 ft | 445 kts | 347° |
| 2026-04-22 17:59 | 45.23871 | 22.83904 | 36115 ft | 445 kts | 347° |
| 2026-04-22 18:00 | 45.28925 | 22.82388 | 36103 ft | 444 kts | 347° |
| 2026-04-22 18:00 | 45.35945 | 22.80278 | 36097 ft | 443 kts | 347° |
| 2026-04-22 18:01 | 45.41980 | 22.78459 | 36113 ft | 443 kts | 347° |
| 2026-04-22 18:01 | 45.48009 | 22.76638 | 36118 ft | 442 kts | 347° |
| 2026-04-22 18:02 | 45.54036 | 22.74814 | 36102 ft | 442 kts | 347° |
| 2026-04-22 18:02 | 45.60045 | 22.72992 | 36105 ft | 442 kts | 347° |
| 2026-04-22 18:03 | 45.66057 | 22.71164 | 36120 ft | 441 kts | 348° |
| 2026-04-22 18:03 | 45.72046 | 22.69340 | 36097 ft | 441 kts | 348° |
| 2026-04-22 18:04 | 45.78050 | 22.67506 | 36093 ft | 441 kts | 348° |
| 2026-04-22 18:04 | 45.84052 | 22.65670 | 36111 ft | 441 kts | 348° |
| 2026-04-22 18:05 | 45.90060 | 22.63827 | 36099 ft | 442 kts | 348° |
| 2026-04-22 18:05 | 45.95088 | 22.62282 | 36097 ft | 442 kts | 348° |
| 2026-04-22 18:06 | 46.01099 | 22.60431 | 36102 ft | 442 kts | 348° |
| 2026-04-22 18:06 | 46.07112 | 22.58576 | 36098 ft | 442 kts | 348° |
| 2026-04-22 18:07 | 46.13120 | 22.56717 | 36104 ft | 442 kts | 348° |
| 2026-04-22 18:07 | 46.19124 | 22.54856 | 36094 ft | 443 kts | 348° |
| 2026-04-22 18:08 | 46.25158 | 22.52982 | 36103 ft | 442 kts | 348° |
| 2026-04-22 18:08 | 46.31170 | 22.51110 | 36107 ft | 443 kts | 348° |
| 2026-04-22 18:09 | 46.37177 | 22.49235 | 36102 ft | 443 kts | 348° |
| 2026-04-22 18:09 | 46.43189 | 22.47354 | 36112 ft | 443 kts | 348° |
| 2026-04-22 18:10 | 46.49242 | 22.45457 | 36118 ft | 443 kts | 348° |
| 2026-04-22 18:10 | 46.55264 | 22.43565 | 36102 ft | 443 kts | 348° |
| 2026-04-22 18:11 | 46.61284 | 22.41669 | 36110 ft | 442 kts | 349° |
| 2026-04-22 18:11 | 46.67298 | 22.39771 | 36111 ft | 442 kts | 349° |
| 2026-04-22 18:12 | 46.73282 | 22.37878 | 36107 ft | 442 kts | 349° |
| 2026-04-22 18:12 | 46.79292 | 22.35972 | 36089 ft | 441 kts | 349° |
| 2026-04-22 18:13 | 46.85284 | 22.34067 | 36101 ft | 441 kts | 349° |
| 2026-04-22 18:13 | 46.91274 | 22.32159 | 36101 ft | 440 kts | 349° |
| 2026-04-22 18:14 | 46.97220 | 22.30261 | 36093 ft | 440 kts | 349° |
| 2026-04-22 18:14 | 47.03231 | 22.28338 | 36097 ft | 440 kts | 349° |
| 2026-04-22 18:15 | 47.09204 | 22.26422 | 36096 ft | 439 kts | 349° |
| 2026-04-22 18:15 | 47.15172 | 22.24503 | 36097 ft | 439 kts | 349° |
| 2026-04-22 18:16 | 47.21122 | 22.22586 | 36093 ft | 439 kts | 349° |
| 2026-04-22 18:16 | 47.27082 | 22.20661 | 36088 ft | 439 kts | 349° |
| 2026-04-22 18:17 | 47.33018 | 22.18740 | 36087 ft | 439 kts | 350° |
| 2026-04-22 18:17 | 47.39013 | 22.16795 | 36086 ft | 439 kts | 350° |
| 2026-04-22 18:18 | 47.44941 | 22.14867 | 36086 ft | 438 kts | 350° |
| 2026-04-22 18:18 | 47.50905 | 22.12923 | 36090 ft | 438 kts | 350° |
| 2026-04-22 18:19 | 47.56855 | 22.10980 | 36090 ft | 438 kts | 350° |
| 2026-04-22 18:19 | 47.62869 | 22.09412 | 36093 ft | 437 kts | 354° |
| 2026-04-22 18:20 | 47.68815 | 22.08139 | 36091 ft | 437 kts | 354° |
| 2026-04-22 18:20 | 47.74821 | 22.06833 | 36092 ft | 437 kts | 354° |
| 2026-04-22 18:21 | 47.80835 | 22.05479 | 36096 ft | 437 kts | 354° |
| 2026-04-22 18:21 | 47.86840 | 22.04107 | 36096 ft | 437 kts | 354° |
| 2026-04-22 18:22 | 47.92839 | 22.02731 | 36099 ft | 437 kts | 354° |
| 2026-04-22 18:22 | 47.98868 | 22.01345 | 36098 ft | 437 kts | 354° |
| 2026-04-22 18:23 | 48.04886 | 21.99960 | 36096 ft | 437 kts | 354° |
| 2026-04-22 18:23 | 48.10882 | 21.98577 | 36098 ft | 437 kts | 354° |
| 2026-04-22 18:24 | 48.19880 | 21.96495 | 36096 ft | 436 kts | 354° |
| 2026-04-22 18:25 | 48.28884 | 21.94404 | 36093 ft | 436 kts | 355° |
| 2026-04-22 18:25 | 48.34879 | 21.93071 | 36096 ft | 434 kts | 359° |
| 2026-04-22 18:26 | 48.40836 | 21.93493 | 36104 ft | 426 kts | 11° |
| 2026-04-22 18:26 | 48.43752 | 21.94120 | 36095 ft | 426 kts | 11° |
| 2026-04-22 18:26 | 48.49622 | 21.95427 | 36093 ft | 426 kts | 11° |
| 2026-04-22 18:27 | 48.55479 | 21.96698 | 36101 ft | 426 kts | 11° |
| 2026-04-22 18:27 | 48.61351 | 21.97942 | 36091 ft | 425 kts | 11° |
| 2026-04-22 18:28 | 48.67208 | 21.99172 | 36102 ft | 425 kts | 11° |
| 2026-04-22 18:28 | 48.73047 | 22.00399 | 36105 ft | 424 kts | 11° |
| 2026-04-22 18:29 | 48.78898 | 22.01632 | 36106 ft | 423 kts | 11° |
| 2026-04-22 18:29 | 48.84703 | 22.02858 | 36110 ft | 423 kts | 11° |
| 2026-04-22 18:30 | 48.93452 | 22.04712 | 36104 ft | 422 kts | 12° |
| 2026-04-22 18:31 | 48.99246 | 22.05944 | 36105 ft | 421 kts | 12° |
| 2026-04-22 18:31 | 49.05071 | 22.07185 | 36105 ft | 421 kts | 12° |
| 2026-04-22 18:32 | 49.10843 | 22.08417 | 36101 ft | 420 kts | 12° |
| 2026-04-22 18:32 | 49.16626 | 22.09655 | 36114 ft | 419 kts | 12° |
| 2026-04-22 18:33 | 49.22478 | 22.09951 | 36123 ft | 424 kts | 360° |
| 2026-04-22 18:33 | 49.28347 | 22.09080 | 36116 ft | 425 kts | 359° |
| 2026-04-22 18:34 | 49.34240 | 22.08128 | 36114 ft | 425 kts | 359° |
| 2026-04-22 18:34 | 49.40108 | 22.07188 | 36102 ft | 425 kts | 359° |
| 2026-04-22 18:35 | 49.46006 | 22.06256 | 36110 ft | 425 kts | 359° |
| 2026-04-22 18:35 | 49.51903 | 22.05328 | 36095 ft | 425 kts | 359° |
| 2026-04-22 18:36 | 49.57766 | 22.04405 | 36101 ft | 425 kts | 359° |
| 2026-04-22 18:36 | 49.63651 | 22.03475 | 36100 ft | 424 kts | 359° |
| 2026-04-22 18:37 | 49.69496 | 22.02549 | 36099 ft | 424 kts | 359° |
| 2026-04-22 18:37 | 49.74385 | 22.01773 | 36096 ft | 423 kts | 359° |
| 2026-04-22 18:38 | 49.81229 | 22.00684 | 36089 ft | 422 kts | 359° |
| 2026-04-22 18:38 | 49.87052 | 21.99755 | 36090 ft | 422 kts | 359° |
| 2026-04-22 18:39 | 49.95778 | 21.98261 | 36079 ft | 423 kts | 356° |
| 2026-04-22 18:39 | 50.01584 | 21.96577 | 36079 ft | 425 kts | 354° |
| 2026-04-22 18:40 | 50.07380 | 21.94734 | 36074 ft | 424 kts | 354° |
| 2026-04-22 18:40 | 50.13154 | 21.92944 | 36072 ft | 424 kts | 355° |
| 2026-04-22 18:41 | 50.18938 | 21.91193 | 36078 ft | 423 kts | 355° |
| 2026-04-22 18:41 | 50.24708 | 21.89461 | 36074 ft | 423 kts | 355° |
| 2026-04-22 18:42 | 50.30506 | 21.87719 | 36079 ft | 422 kts | 355° |
| 2026-04-22 18:42 | 50.36254 | 21.85987 | 36085 ft | 422 kts | 355° |
| 2026-04-22 18:43 | 50.42003 | 21.84250 | 36084 ft | 422 kts | 355° |
| 2026-04-22 18:43 | 50.47784 | 21.82499 | 36083 ft | 421 kts | 355° |
| 2026-04-22 18:44 | 50.53546 | 21.80749 | 36083 ft | 421 kts | 355° |
| 2026-04-22 18:44 | 50.59304 | 21.78995 | 36080 ft | 421 kts | 355° |
| 2026-04-22 18:45 | 50.62167 | 21.78124 | 35699 ft | 427 kts | 356° |
| 2026-04-22 18:45 | 50.65092 | 21.77232 | 35295 ft | 422 kts | 356° |
| 2026-04-22 18:45 | 50.67915 | 21.76362 | 34920 ft | 416 kts | 356° |
| 2026-04-22 18:45 | 50.70753 | 21.75487 | 34544 ft | 410 kts | 357° |
| 2026-04-22 18:46 | 50.73559 | 21.74622 | 34175 ft | 405 kts | 357° |
| 2026-04-22 18:46 | 50.76288 | 21.73781 | 33766 ft | 400 kts | 357° |
| 2026-04-22 18:46 | 50.79015 | 21.72943 | 33336 ft | 395 kts | 357° |
| 2026-04-22 18:46 | 50.81687 | 21.72122 | 32918 ft | 391 kts | 357° |
| 2026-04-22 18:47 | 50.84334 | 21.71308 | 32505 ft | 387 kts | 357° |
| 2026-04-22 18:47 | 50.87000 | 21.70487 | 32095 ft | 383 kts | 357° |
| 2026-04-22 18:47 | 50.89580 | 21.69692 | 31700 ft | 380 kts | 356° |
| 2026-04-22 18:47 | 50.92181 | 21.68890 | 31293 ft | 377 kts | 356° |
| 2026-04-22 18:48 | 50.94725 | 21.68104 | 30905 ft | 374 kts | 356° |
| 2026-04-22 18:48 | 50.97281 | 21.67313 | 30519 ft | 371 kts | 356° |
| 2026-04-22 18:48 | 50.99788 | 21.66537 | 30146 ft | 368 kts | 356° |
| 2026-04-22 18:48 | 51.02299 | 21.65758 | 29704 ft | 365 kts | 355° |
| 2026-04-22 18:49 | 51.04795 | 21.64982 | 29277 ft | 362 kts | 355° |
| 2026-04-22 18:49 | 51.07237 | 21.64222 | 28860 ft | 358 kts | 355° |
| 2026-04-22 18:49 | 51.09664 | 21.63466 | 28443 ft | 355 kts | 355° |
| 2026-04-22 18:49 | 51.12088 | 21.62711 | 27868 ft | 356 kts | 355° |
| 2026-04-22 18:50 | 51.14561 | 21.61946 | 27109 ft | 362 kts | 355° |
| 2026-04-22 18:50 | 51.17013 | 21.61182 | 26652 ft | 360 kts | 354° |
| 2026-04-22 18:50 | 51.19449 | 21.60419 | 26226 ft | 357 kts | 354° |
| 2026-04-22 18:50 | 51.21067 | 21.59911 | 25950 ft | 355 kts | 354° |
| 2026-04-22 18:51 | 51.24286 | 21.58901 | 25420 ft | 351 kts | 354° |
| 2026-04-22 18:51 | 51.26670 | 21.58151 | 25029 ft | 348 kts | 354° |
| 2026-04-22 18:51 | 51.29026 | 21.57411 | 24561 ft | 347 kts | 353° |
| 2026-04-22 18:51 | 51.31416 | 21.56661 | 24087 ft | 347 kts | 353° |
| 2026-04-22 18:52 | 51.33777 | 21.55919 | 23649 ft | 346 kts | 353° |
| 2026-04-22 18:52 | 51.35346 | 21.55424 | 23358 ft | 344 kts | 353° |
| 2026-04-22 18:52 | 51.37687 | 21.54685 | 22947 ft | 340 kts | 352° |
| 2026-04-22 18:52 | 51.39982 | 21.53959 | 22572 ft | 335 kts | 352° |
| 2026-04-22 18:53 | 51.42240 | 21.53245 | 22209 ft | 331 kts | 352° |
| 2026-04-22 18:53 | 51.44495 | 21.52531 | 21838 ft | 327 kts | 352° |
| 2026-04-22 18:53 | 51.46732 | 21.51822 | 21479 ft | 324 kts | 352° |
| 2026-04-22 18:53 | 51.48928 | 21.51127 | 21116 ft | 321 kts | 352° |
| 2026-04-22 18:54 | 51.51102 | 21.50437 | 20765 ft | 318 kts | 352° |
| 2026-04-22 18:54 | 51.53247 | 21.49756 | 20418 ft | 315 kts | 352° |
| 2026-04-22 18:54 | 51.55396 | 21.49073 | 20065 ft | 312 kts | 352° |
| 2026-04-22 18:54 | 51.57504 | 21.48403 | 19720 ft | 310 kts | 352° |
| 2026-04-22 18:55 | 51.59625 | 21.47728 | 19374 ft | 308 kts | 352° |
| 2026-04-22 18:55 | 51.61734 | 21.47056 | 19036 ft | 306 kts | 352° |
| 2026-04-22 18:55 | 51.63796 | 21.46399 | 18695 ft | 304 kts | 352° |
| 2026-04-22 18:55 | 51.65885 | 21.45732 | 18356 ft | 302 kts | 352° |
| 2026-04-22 18:56 | 51.67923 | 21.45080 | 17981 ft | 301 kts | 351° |
| 2026-04-22 18:56 | 51.69983 | 21.44421 | 17641 ft | 298 kts | 351° |
| 2026-04-22 18:56 | 51.71992 | 21.43778 | 17297 ft | 295 kts | 351° |
| 2026-04-22 18:56 | 51.73992 | 21.43137 | 16966 ft | 292 kts | 351° |
| 2026-04-22 18:57 | 51.75985 | 21.42497 | 16643 ft | 290 kts | 351° |
| 2026-04-22 18:57 | 51.77965 | 21.41861 | 16308 ft | 288 kts | 351° |
| 2026-04-22 18:57 | 51.79899 | 21.41240 | 16000 ft | 286 kts | 351° |
| 2026-04-22 18:57 | 51.81861 | 21.40609 | 15674 ft | 284 kts | 351° |
| 2026-04-22 18:58 | 51.83774 | 21.39993 | 15350 ft | 282 kts | 351° |
| 2026-04-22 18:58 | 51.85703 | 21.39372 | 15032 ft | 281 kts | 351° |
| 2026-04-22 18:58 | 51.87602 | 21.38759 | 14721 ft | 279 kts | 351° |
| 2026-04-22 18:58 | 51.89501 | 21.38146 | 14404 ft | 278 kts | 350° |
| 2026-04-22 18:59 | 51.91397 | 21.37534 | 14091 ft | 277 kts | 350° |
| 2026-04-22 18:59 | 51.93280 | 21.36925 | 13776 ft | 276 kts | 350° |
| 2026-04-22 18:59 | 51.95159 | 21.36317 | 13423 ft | 274 kts | 350° |
| 2026-04-22 18:59 | 51.97028 | 21.35712 | 13098 ft | 272 kts | 350° |
| 2026-04-22 19:00 | 51.98263 | 21.35311 | 12907 ft | 270 kts | 350° |
| 2026-04-22 19:00 | 52.00706 | 21.34518 | 12505 ft | 267 kts | 350° |
| 2026-04-22 19:00 | 52.02533 | 21.33925 | 12198 ft | 269 kts | 350° |
| 2026-04-22 19:00 | 52.04379 | 21.33326 | 11885 ft | 273 kts | 349° |
| 2026-04-22 19:01 | 52.06263 | 21.32714 | 11575 ft | 278 kts | 349° |
| 2026-04-22 19:01 | 52.08177 | 21.32091 | 11251 ft | 281 kts | 349° |
| 2026-04-22 19:01 | 52.10072 | 21.31473 | 10914 ft | 279 kts | 349° |
| 2026-04-22 19:01 | 52.11977 | 21.30852 | 10600 ft | 277 kts | 349° |
| 2026-04-22 19:02 | 52.13847 | 21.30241 | 10357 ft | 272 kts | 349° |
| 2026-04-22 19:02 | 52.15681 | 21.29641 | 10239 ft | 263 kts | 349° |
| 2026-04-22 19:02 | 52.17439 | 21.29066 | 10128 ft | 255 kts | 349° |
| 2026-04-22 19:02 | 52.19155 | 21.28504 | 9980 ft | 248 kts | 349° |
| 2026-04-22 19:03 | 52.20851 | 21.27949 | 9707 ft | 246 kts | 349° |
| 2026-04-22 19:03 | 52.22517 | 21.27404 | 9434 ft | 244 kts | 348° |
| 2026-04-22 19:03 | 52.24161 | 21.26865 | 9180 ft | 242 kts | 348° |
| 2026-04-22 19:03 | 52.25803 | 21.26326 | 8925 ft | 239 kts | 348° |
| 2026-04-22 19:04 | 52.27436 | 21.25790 | 8654 ft | 237 kts | 348° |
| 2026-04-22 19:04 | 52.29021 | 21.25269 | 8407 ft | 235 kts | 347° |
| 2026-04-22 19:04 | 52.30626 | 21.24741 | 8164 ft | 233 kts | 347° |
| 2026-04-22 19:04 | 52.32210 | 21.24220 | 7895 ft | 231 kts | 347° |
| 2026-04-22 19:05 | 52.33780 | 21.23702 | 7648 ft | 229 kts | 346° |
| 2026-04-22 19:05 | 52.35333 | 21.23190 | 7386 ft | 229 kts | 346° |
| 2026-04-22 19:05 | 52.36898 | 21.22674 | 7142 ft | 227 kts | 346° |
| 2026-04-22 19:05 | 52.38425 | 21.22169 | 6902 ft | 225 kts | 346° |
| 2026-04-22 19:06 | 52.39965 | 21.21661 | 6705 ft | 222 kts | 345° |
| 2026-04-22 19:06 | 52.41472 | 21.21163 | 6502 ft | 219 kts | 345° |
| 2026-04-22 19:06 | 52.42935 | 21.20679 | 6282 ft | 217 kts | 345° |
| 2026-04-22 19:07 | 52.45849 | 21.19713 | 5869 ft | 211 kts | 345° |
| 2026-04-22 19:07 | 52.47269 | 21.19242 | 5660 ft | 203 kts | 344° |
| 2026-04-22 19:07 | 52.48437 | 21.18184 | 5451 ft | 192 kts | 308° |
| 2026-04-22 19:07 | 52.48857 | 21.16153 | 5308 ft | 187 kts | 283° |
| 2026-04-22 19:08 | 52.49010 | 21.14072 | 5179 ft | 180 kts | 281° |
| 2026-04-22 19:08 | 52.49096 | 21.12064 | 5111 ft | 179 kts | 278° |
| 2026-04-22 19:08 | 52.49096 | 21.10004 | 5017 ft | 179 kts | 276° |
| 2026-04-22 19:08 | 52.49058 | 21.07957 | 4928 ft | 179 kts | 273° |
| 2026-04-22 19:09 | 52.48949 | 21.05920 | 4846 ft | 179 kts | 270° |
| 2026-04-22 19:09 | 52.48793 | 21.03890 | 4767 ft | 179 kts | 269° |
| 2026-04-22 19:09 | 52.48613 | 21.01836 | 4568 ft | 185 kts | 268° |
| 2026-04-22 19:09 | 52.48418 | 20.99742 | 4375 ft | 189 kts | 267° |
| 2026-04-22 19:10 | 52.48214 | 20.97609 | 4169 ft | 188 kts | 267° |
| 2026-04-22 19:10 | 52.48014 | 20.95556 | 4036 ft | 176 kts | 267° |
| 2026-04-22 19:10 | 52.47830 | 20.93650 | 4009 ft | 170 kts | 267° |
| 2026-04-22 19:10 | 52.47644 | 20.91687 | 3810 ft | 178 kts | 267° |
| 2026-04-22 19:11 | 52.47450 | 20.89667 | 3542 ft | 177 kts | 266° |
| 2026-04-22 19:11 | 52.47261 | 20.87709 | 3279 ft | 175 kts | 266° |
| 2026-04-22 19:11 | 52.47072 | 20.85736 | 3002 ft | 174 kts | 266° |
| 2026-04-22 19:11 | 52.46884 | 20.83776 | 2736 ft | 172 kts | 266° |
| 2026-04-22 19:12 | 52.46702 | 20.81869 | 2482 ft | 169 kts | 266° |
| 2026-04-22 19:12 | 52.46522 | 20.79979 | 2210 ft | 164 kts | 266° |
| 2026-04-22 19:12 | 52.46348 | 20.78154 | 1980 ft | 164 kts | 266° |
| 2026-04-22 19:12 | 52.46182 | 20.76399 | 1722 ft | 155 kts | 266° |
| 2026-04-22 19:13 | 52.46022 | 20.74712 | 1484 ft | 144 kts | 265° |
| 2026-04-22 19:13 | 52.45870 | 20.73107 | 1275 ft | 142 kts | 265° |
| 2026-04-22 19:13 | 52.45720 | 20.71494 | 1020 ft | 146 kts | 262° |
| 2026-04-22 19:13 | 52.45567 | 20.69878 | 836 ft | 143 kts | 262° |
| 2026-04-22 19:14 | 52.45414 | 20.68253 | 616 ft | 143 kts | 262° |
| 2026-04-22 19:14 | 52.45264 | 20.66658 | 366 ft | 140 kts | 261° |
| 2026-04-22 19:14 | 52.45129 | 20.65276 | 349 ft | 96 kts | 261° |
| 2026-04-22 19:14 | 52.45057 | 20.64517 | 349 ft | 41 kts | 261° |
| 2026-04-22 19:15 | 52.45008 | 20.64391 | 354 ft | 19 kts | 195° |
| 2026-04-22 19:15 | 52.44845 | 20.64375 | 357 ft | 16 kts | 181° |
| 2026-04-22 19:15 | 52.44749 | 20.64369 | 351 ft | 11 kts | 181° |
| 2026-04-22 19:15 | 52.44717 | 20.64499 | 349 ft | 19 kts | 81° |
| 2026-04-22 19:16 | 52.44740 | 20.64733 | 352 ft | 15 kts | 80° |
| 2026-04-22 19:16 | 52.44747 | 20.64800 | 351 ft | 13 kts | 80° |
| 2026-04-22 19:16 | 52.44761 | 20.64929 | 352 ft | 13 kts | 80° |
| 2026-04-22 19:16 | 52.44763 | 20.65034 | 357 ft | 4 kts | 126° |
| 2026-04-22 19:17 | 52.44737 | 20.65033 | 355 ft | 4 kts | 205° |
| 2026-04-22 19:17 | 52.44731 | 20.65025 | 353 ft | 0 kts | 219° |
| 2026-04-22 19:17 | 52.44728 | 20.65021 | 352 ft | 3 kts | 223° |
| 2026-04-22 19:17 | 52.44721 | 20.65012 | 356 ft | 0 kts | 216° |